Gaiuut, Mongolia
Current Conditions -  °F | °C
As of 9:30 AM on Wednesday 28 Jan 2015 (Local Time) from ZMUB Reporting Station
Moderate Snow Moderate Snow  
Wind Chill: -2°   Ceiling: 8000
Heat Index: -2°   Visibility: 2mi
Dew Point: -8°   Wind: 0mph
Humidity: 78%   Direction: NA
Pressure: 30.09"   Gusts: NA
Location:  46.7°N, 100.13°E
Report Text: ZMUB 280130Z 00000MPS 3200SE 4000NW SN FEW033 BKN080 M19/M22 Q1019 NOSIG RMK QFE657.0 77 SE NW MO
Loading
Personal Weather Stations






























Interactive Weather Map New forecast layout! Learn more

10-Day Weather Forecast

Advertisements
Track Severe Weather on mobile